Time;durP1;ratioP1;P1;durP2;ratioP2;P2;SDS_P1;SDS_P2;PMS_P1;PMS_P2;Temp;Humidity;BMP_temperature;BMP_pressure;BME280_temperature;BME280_humidity;BME280_pressure;Samples;Min_cycle;Max_cycle;Signal;HPM_P1;HPM_P2
2023/03/05 00:00:14;;;;;;;1.48;1.30;;;;;;;;;;1036552;28;20022;-80
2023/03/05 00:00:45;;;;;;;6.57;2.35;;;;;;;;;;1035328;28;20370;-79
2023/03/05 00:01:18;;;;;;;2.45;1.38;;;;;;;;;;1031501;28;20066;-79
2023/03/05 00:01:48;;;;;;;5.57;1.98;;;;;;;;;;1027594;28;20042;-79
2023/03/05 00:02:19;;;;;;;2.63;2.42;;;;;;;;;;1031451;28;20027;-79
2023/03/05 00:02:50;;;;;;;2.70;2.10;;;;;;;;;;1034887;28;20014;-79
2023/03/05 00:03:20;;;;;;;4.75;2.60;;;;;;;;;;1037458;28;20119;-79
2023/03/05 00:03:52;;;;;;;7.88;1.95;;;;;;;;;;1042065;28;20028;-79
2023/03/05 00:04:22;;;;;;;7.78;1.92;;;;;;;;;;1041022;28;20446;-79
2023/03/05 00:04:53;;;;;;;2.75;2.53;;;;;;;;;;1037655;28;20033;-79
2023/03/05 00:05:23;;;;;;;1.38;0.80;;;;;;;;;;1036961;28;20084;-79
2023/03/05 00:05:57;;;;;;;17.42;1.55;;;;;;;;;;1037603;28;20049;-79
2023/03/05 00:06:29;;;;;;;3.10;2.05;;;;;;;;;;1041603;28;20540;-79
2023/03/05 00:06:59;;;;;;;7.43;1.63;;;;;;;;;;1042370;28;20020;-79
2023/03/05 00:07:30;;;;;;;2.53;1.70;;;;;;;;;;1041235;28;20489;-79
2023/03/05 00:08:01;;;;;;;6.97;0.88;;;;;;;;;;1039126;28;20021;-79
2023/03/05 00:08:31;;;;;;;13.48;1.40;;;;;;;;;;1035510;28;20022;-79
2023/03/05 00:09:02;;;;;;;4.10;1.40;;;;;;;;;;1031543;28;20049;-80
2023/03/05 00:09:33;;;;;;;4.95;1.33;;;;;;;;;;1031350;28;20023;-80
2023/03/05 00:10:04;;;;;;;1.88;1.33;;;;;;;;;;1031829;28;20026;-80
2023/03/05 00:10:35;;;;;;;3.67;2.33;;;;;;;;;;1036022;28;20137;-80
2023/03/05 00:11:07;;;;;;;2.47;1.73;;;;;;;;;;1042209;28;20020;-80
2023/03/05 00:11:38;;;;;;;1.50;1.05;;;;;;;;;;1042220;28;20072;-79
2023/03/05 00:12:09;;;;;;;2.75;1.63;;;;;;;;;;1041853;28;20048;-79
2023/03/05 00:12:39;;;;;;;5.40;2.22;;;;;;;;;;1042936;28;20380;-80
2023/03/05 00:13:10;;;;;;;4.18;2.47;;;;;;;;;;1041480;28;20017;-80
2023/03/05 00:13:40;;;;;;;9.32;2.65;;;;;;;;;;1041105;28;20021;-80
2023/03/05 00:14:11;;;;;;;3.28;1.23;;;;;;;;;;1041850;28;20025;-80
2023/03/05 00:14:42;;;;;;;2.67;1.70;;;;;;;;;;1041750;28;20021;-80
2023/03/05 00:15:12;;;;;;;3.40;1.73;;;;;;;;;;1041439;28;20115;-80
2023/03/05 00:15:43;;;;;;;3.33;1.92;;;;;;;;;;1040811;28;20590;-80
2023/03/05 00:16:14;;;;;;;1.98;1.38;;;;;;;;;;1041318;28;20030;-80
2023/03/05 00:16:45;;;;;;;2.15;0.90;;;;;;;;;;1040045;28;20032;-80
2023/03/05 00:17:15;;;;;;;6.15;1.83;;;;;;;;;;1037257;28;20036;-80
2023/03/05 00:17:46;;;;;;;6.93;1.88;;;;;;;;;;1035151;28;20042;-80
2023/03/05 00:18:17;;;;;;;2.08;1.35;;;;;;;;;;1035595;28;20026;-80
2023/03/05 00:18:48;;;;;;;3.17;1.63;;;;;;;;;;1031852;28;20029;-80
2023/03/05 00:19:18;;;;;;;17.25;2.65;;;;;;;;;;1035550;28;20046;-80
2023/03/05 00:19:49;;;;;;;3.65;2.63;;;;;;;;;;1037295;28;20026;-80
2023/03/05 00:20:19;;;;;;;2.55;1.88;;;;;;;;;;1037883;28;20020;-79
2023/03/05 00:20:50;;;;;;;4.95;1.25;;;;;;;;;;1042227;28;20033;-79
2023/03/05 00:21:27;;;;;;;5.90;2.17;;;;;;;;;;1040539;28;20444;-80
2023/03/05 00:21:57;;;;;;;10.32;1.65;;;;;;;;;;1041017;28;20556;-80
2023/03/05 00:22:28;;;;;;;2.90;2.42;;;;;;;;;;1043105;28;20060;-80
2023/03/05 00:22:58;;;;;;;2.05;1.50;;;;;;;;;;1041557;28;20021;-80
2023/03/05 00:23:29;;;;;;;1.60;1.13;;;;;;;;;;1041783;28;20059;-80
2023/03/05 00:24:01;;;;;;;1.85;1.73;;;;;;;;;;1041183;28;20112;-80
2023/03/05 00:24:31;;;;;;;2.92;2.72;;;;;;;;;;1037827;28;20018;-80
2023/03/05 00:25:02;;;;;;;2.88;2.08;;;;;;;;;;1033449;28;20018;-80
2023/03/05 00:25:36;;;;;;;1.52;1.17;;;;;;;;;;1030063;28;20023;-80
2023/03/05 00:26:06;;;;;;;5.97;1.85;;;;;;;;;;1028047;28;20466;-80
2023/03/05 00:26:37;;;;;;;2.75;1.45;;;;;;;;;;1031392;28;20023;-80
2023/03/05 00:27:08;;;;;;;3.58;1.90;;;;;;;;;;1036505;28;20029;-80
2023/03/05 00:27:38;;;;;;;4.55;2.50;;;;;;;;;;1039412;28;20491;-80
2023/03/05 00:28:09;;;;;;;2.40;1.58;;;;;;;;;;1039800;28;20025;-79
2023/03/05 00:28:40;;;;;;;4.85;1.75;;;;;;;;;;1035275;28;20018;-79
2023/03/05 00:29:13;;;;;;;2.83;1.45;;;;;;;;;;1035402;28;20030;-79
2023/03/05 00:29:44;;;;;;;5.22;2.22;;;;;;;;;;1035235;28;20238;-79
2023/03/05 00:30:14;;;;;;;5.40;2.00;;;;;;;;;;1032011;28;20146;-79
2023/03/05 00:30:45;;;;;;;10.35;2.75;;;;;;;;;;1032925;28;20030;-79
2023/03/05 00:31:16;;;;;;;2.08;1.55;;;;;;;;;;1032549;28;20030;-79
2023/03/05 00:31:47;;;;;;;7.93;1.95;;;;;;;;;;1033182;28;20066;-79
2023/03/05 00:32:18;;;;;;;2.50;1.50;;;;;;;;;;1033704;28;20025;-79
2023/03/05 00:32:48;;;;;;;5.00;2.22;;;;;;;;;;1035684;28;20521;-79
2023/03/05 00:33:19;;;;;;;8.05;2.05;;;;;;;;;;1035457;28;20116;-79
2023/03/05 00:33:53;;;;;;;16.15;2.28;;;;;;;;;;1035293;28;20022;-79
2023/03/05 00:34:24;;;;;;;11.13;1.83;;;;;;;;;;1035358;28;20097;-79
2023/03/05 00:34:55;;;;;;;1.73;0.88;;;;;;;;;;1035731;28;20125;-79
2023/03/05 00:35:25;;;;;;;7.28;1.90;;;;;;;;;;1035372;28;20452;-79
2023/03/05 00:35:57;;;;;;;6.68;3.60;;;;;;;;;;1035699;28;20478;-79
2023/03/05 00:36:28;;;;;;;5.15;2.50;;;;;;;;;;1038860;28;20029;-79
2023/03/05 00:36:58;;;;;;;4.45;2.33;;;;;;;;;;1040603;28;20433;-79
2023/03/05 00:37:29;;;;;;;8.65;2.13;;;;;;;;;;1041129;28;20052;-79
2023/03/05 00:37:59;;;;;;;2.47;1.40;;;;;;;;;;1038820;28;20892;-79
2023/03/05 00:38:30;;;;;;;4.03;1.38;;;;;;;;;;1036517;28;20030;-79
2023/03/05 00:39:01;;;;;;;2.08;1.40;;;;;;;;;;1033982;28;20024;-79
2023/03/05 00:39:31;;;;;;;5.25;1.48;;;;;;;;;;1035521;28;20081;-79
2023/03/05 00:40:02;;;;;;;1.75;1.60;;;;;;;;;;1035401;28;20022;-79
2023/03/05 00:40:36;;;;;;;2.90;1.85;;;;;;;;;;1035559;28;20025;-79
2023/03/05 00:41:07;;;;;;;3.25;1.70;;;;;;;;;;1035933;28;20037;-79
2023/03/05 00:41:38;;;;;;;1.67;1.38;;;;;;;;;;1034155;28;20024;-79
2023/03/05 00:42:08;;;;;;;12.07;2.78;;;;;;;;;;1035362;28;20129;-79
2023/03/05 00:42:39;;;;;;;2.80;1.70;;;;;;;;;;1035231;28;20018;-79
2023/03/05 00:43:10;;;;;;;1.67;1.13;;;;;;;;;;1035431;28;20025;-79
2023/03/05 00:43:40;;;;;;;2.45;1.23;;;;;;;;;;1035277;28;20029;-79
2023/03/05 00:44:11;;;;;;;2.35;2.15;;;;;;;;;;1035075;28;20097;-79
2023/03/05 00:44:41;;;;;;;3.42;2.58;;;;;;;;;;1039698;28;20517;-79
2023/03/05 00:45:12;;;;;;;8.75;2.92;;;;;;;;;;1039386;28;20026;-79
2023/03/05 00:45:43;;;;;;;1.48;1.13;;;;;;;;;;1039634;28;20639;-79
2023/03/05 00:46:13;;;;;;;3.78;2.10;;;;;;;;;;1039498;28;20525;-79
2023/03/05 00:46:44;;;;;;;8.50;2.60;;;;;;;;;;1039168;28;20029;-79
2023/03/05 00:47:17;;;;;;;2.15;1.38;;;;;;;;;;1032507;28;20030;-79
2023/03/05 00:47:47;;;;;;;3.10;1.65;;;;;;;;;;1032232;28;20081;-79
2023/03/05 00:48:18;;;;;;;4.90;2.15;;;;;;;;;;1034488;28;20054;-79
2023/03/05 00:48:48;;;;;;;3.47;2.05;;;;;;;;;;1033365;28;20072;-80
2023/03/05 00:49:19;;;;;;;3.65;1.85;;;;;;;;;;1035349;28;20494;-79
2023/03/05 00:49:50;;;;;;;6.90;2.33;;;;;;;;;;1039781;28;20104;-79
2023/03/05 00:50:20;;;;;;;1.63;1.52;;;;;;;;;;1039912;28;20109;-79
2023/03/05 00:50:51;;;;;;;9.50;1.85;;;;;;;;;;1039874;28;20481;-79
2023/03/05 00:51:22;;;;;;;4.22;2.42;;;;;;;;;;1038956;28;20025;-79
2023/03/05 00:51:52;;;;;;;6.50;3.28;;;;;;;;;;1040642;28;20032;-79
2023/03/05 00:52:23;;;;;;;1.52;0.77;;;;;;;;;;1039991;28;20424;-79
2023/03/05 00:52:53;;;;;;;5.15;1.48;;;;;;;;;;1039829;28;20041;-79
2023/03/05 00:53:24;;;;;;;18.55;2.10;;;;;;;;;;1039751;28;20028;-79
2023/03/05 00:53:54;;;;;;;7.63;2.88;;;;;;;;;;1039719;28;20120;-79
2023/03/05 00:54:25;;;;;;;3.08;1.60;;;;;;;;;;1035832;28;20032;-79
2023/03/05 00:54:55;;;;;;;3.58;1.25;;;;;;;;;;1035493;28;20505;-80
2023/03/05 00:55:26;;;;;;;4.32;1.63;;;;;;;;;;1035215;28;20037;-80
2023/03/05 00:55:57;;;;;;;4.22;1.98;;;;;;;;;;1035357;28;20084;-80
2023/03/05 00:56:28;;;;;;;1.58;0.70;;;;;;;;;;1041442;28;20028;-80
2023/03/05 00:56:58;;;;;;;4.63;1.52;;;;;;;;;;1039837;28;20116;-80
2023/03/05 00:57:29;;;;;;;7.85;3.13;;;;;;;;;;1039809;28;20032;-79
2023/03/05 00:57:59;;;;;;;11.48;1.85;;;;;;;;;;1039679;28;20032;-79
2023/03/05 00:58:30;;;;;;;2.83;1.25;;;;;;;;;;1033609;28;20030;-79
2023/03/05 00:59:01;;;;;;;10.00;1.45;;;;;;;;;;1031321;28;20032;-79
2023/03/05 00:59:31;;;;;;;2.70;2.47;;;;;;;;;;1027174;28;20026;-79
2023/03/05 01:00:02;;;;;;;9.30;1.48;;;;;;;;;;1028195;28;20414;-79
2023/03/05 01:00:33;;;;;;;3.75;0.82;;;;;;;;;;1030205;28;20026;-79
2023/03/05 01:01:04;;;;;;;7.13;2.25;;;;;;;;;;1038089;28;20029;-80
2023/03/05 01:01:35;;;;;;;4.85;1.83;;;;;;;;;;1036990;28;20596;-80
2023/03/05 01:02:05;;;;;;;19.13;1.27;;;;;;;;;;1035755;28;20471;-80
2023/03/05 01:02:36;;;;;;;6.30;1.27;;;;;;;;;;1035829;28;20659;-80
2023/03/05 01:03:07;;;;;;;2.03;1.77;;;;;;;;;;1035271;28;20026;-80
2023/03/05 01:03:37;;;;;;;2.22;1.48;;;;;;;;;;1036275;28;20446;-80
2023/03/05 01:04:08;;;;;;;1.90;1.10;;;;;;;;;;1036558;28;20124;-80
2023/03/05 01:04:38;;;;;;;1.05;0.98;;;;;;;;;;1032951;28;20022;-80
2023/03/05 01:05:13;;;;;;;1.73;1.05;;;;;;;;;;1036553;28;20503;-79
2023/03/05 01:05:43;;;;;;;5.93;1.92;;;;;;;;;;1036062;28;20022;-79
2023/03/05 01:06:15;;;;;;;1.67;1.40;;;;;;;;;;1037230;28;20097;-79
2023/03/05 01:06:46;;;;;;;2.03;1.42;;;;;;;;;;1037072;28;20033;-79
2023/03/05 01:07:17;;;;;;;3.47;1.23;;;;;;;;;;1033778;28;20029;-79
2023/03/05 01:07:47;;;;;;;1.65;1.15;;;;;;;;;;1033576;28;20025;-79
2023/03/05 01:08:18;;;;;;;3.60;1.92;;;;;;;;;;1033839;28;20484;-79
2023/03/05 01:08:49;;;;;;;1.70;1.42;;;;;;;;;;1039006;28;20029;-79
2023/03/05 01:09:20;;;;;;;3.97;1.92;;;;;;;;;;1040057;28;20029;-79
2023/03/05 01:09:51;;;;;;;2.63;1.35;;;;;;;;;;1040429;28;20080;-79
2023/03/05 01:10:22;;;;;;;6.15;1.95;;;;;;;;;;1036429;28;20516;-80
2023/03/05 01:10:53;;;;;;;3.97;3.53;;;;;;;;;;1032486;28;20033;-80
2023/03/05 01:11:23;;;;;;;2.20;1.25;;;;;;;;;;1034232;28;20643;-80
2023/03/05 01:11:54;;;;;;;1.65;1.35;;;;;;;;;;1037125;28;20032;-80
2023/03/05 01:12:24;;;;;;;11.20;3.00;;;;;;;;;;1043530;28;20021;-80
2023/03/05 01:12:55;;;;;;;6.35;3.00;;;;;;;;;;1039531;28;20109;-80
2023/03/05 01:13:26;;;;;;;4.22;2.33;;;;;;;;;;1038714;28;20032;-80
2023/03/05 01:13:56;;;;;;;9.30;1.65;;;;;;;;;;1039215;28;20017;-80
2023/03/05 01:14:27;;;;;;;17.55;2.35;;;;;;;;;;1037963;28;20026;-80
2023/03/05 01:14:58;;;;;;;1.42;1.33;;;;;;;;;;1039889;28;20115;-80
2023/03/05 01:15:28;;;;;;;10.75;1.73;;;;;;;;;;1037389;28;20025;-80
2023/03/05 01:15:59;;;;;;;3.40;2.22;;;;;;;;;;1040239;28;20071;-80
2023/03/05 01:16:30;;;;;;;4.15;0.98;;;;;;;;;;1039897;28;20030;-80
2023/03/05 01:17:01;;;;;;;1.35;1.13;;;;;;;;;;1036136;28;20482;-80
2023/03/05 01:17:31;;;;;;;3.85;1.45;;;;;;;;;;1040366;28;20029;-80
2023/03/05 01:18:02;;;;;;;2.03;1.55;;;;;;;;;;1037852;28;20022;-80
2023/03/05 01:18:33;;;;;;;6.20;1.70;;;;;;;;;;1036021;28;20026;-80
2023/03/05 01:19:04;;;;;;;17.52;1.70;;;;;;;;;;1031997;28;20023;-79
2023/03/05 01:19:34;;;;;;;3.38;1.90;;;;;;;;;;1031936;28;20058;-79
2023/03/05 01:20:05;;;;;;;5.50;1.60;;;;;;;;;;1034220;28;20057;-79
2023/03/05 01:20:36;;;;;;;4.97;2.65;;;;;;;;;;1035992;28;20073;-79
2023/03/05 01:21:07;;;;;;;3.67;1.60;;;;;;;;;;1035442;28;20481;-79
2023/03/05 01:21:37;;;;;;;18.80;2.67;;;;;;;;;;1035996;28;20052;-79
2023/03/05 01:22:08;;;;;;;11.90;2.08;;;;;;;;;;1036141;28;20057;-79
2023/03/05 01:22:39;;;;;;;3.47;1.67;;;;;;;;;;1039472;28;20021;-80
2023/03/05 01:23:09;;;;;;;3.45;1.92;;;;;;;;;;1034866;28;20026;-80
2023/03/05 01:23:40;;;;;;;3.70;1.73;;;;;;;;;;1033803;28;20077;-80
2023/03/05 01:24:11;;;;;;;13.48;1.90;;;;;;;;;;1037580;28;20026;-80
2023/03/05 01:24:41;;;;;;;8.88;2.53;;;;;;;;;;1040577;28;20520;-80
2023/03/05 01:25:13;;;;;;;10.85;3.33;;;;;;;;;;1040571;28;20428;-79
2023/03/05 01:25:43;;;;;;;2.38;1.38;;;;;;;;;;1040227;28;20552;-79
2023/03/05 01:26:14;;;;;;;14.45;2.35;;;;;;;;;;1040246;28;20022;-79
2023/03/05 01:26:44;;;;;;;4.72;1.55;;;;;;;;;;1039774;28;20025;-79
2023/03/05 01:27:15;;;;;;;2.83;1.25;;;;;;;;;;1041072;28;20034;-79
2023/03/05 01:27:46;;;;;;;6.28;2.55;;;;;;;;;;1037667;28;20113;-79
2023/03/05 01:28:16;;;;;;;3.83;1.88;;;;;;;;;;1041866;28;20022;-79
2023/03/05 01:28:47;;;;;;;3.47;2.35;;;;;;;;;;1042206;28;20025;-79
2023/03/05 01:29:17;;;;;;;3.42;1.73;;;;;;;;;;1040098;28;20224;-80
2023/03/05 01:29:48;;;;;;;11.73;2.25;;;;;;;;;;1039958;28;20017;-80
2023/03/05 01:30:19;;;;;;;8.20;1.55;;;;;;;;;;1040281;28;20031;-80
2023/03/05 01:30:49;;;;;;;3.63;1.75;;;;;;;;;;1038325;28;20424;-79
2023/03/05 01:31:20;;;;;;;2.50;1.35;;;;;;;;;;1038360;28;20433;-80
2023/03/05 01:31:50;;;;;;;1.50;0.95;;;;;;;;;;1037120;28;20095;-80
2023/03/05 01:32:21;;;;;;;6.35;2.08;;;;;;;;;;1042897;28;20504;-80
2023/03/05 01:32:52;;;;;;;3.75;1.88;;;;;;;;;;1043355;28;20489;-80
2023/03/05 01:33:22;;;;;;;5.95;3.17;;;;;;;;;;1042785;28;20088;-80
2023/03/05 01:33:53;;;;;;;2.70;1.92;;;;;;;;;;1042736;28;20388;-80
2023/03/05 01:34:24;;;;;;;5.45;2.92;;;;;;;;;;1041189;28;20052;-80
2023/03/05 01:34:54;;;;;;;1.15;1.00;;;;;;;;;;1039193;28;20018;-80
2023/03/05 01:35:25;;;;;;;3.85;2.17;;;;;;;;;;1036681;28;20032;-80
2023/03/05 01:35:56;;;;;;;2.65;1.58;;;;;;;;;;1038551;28;20017;-80
2023/03/05 01:36:26;;;;;;;7.00;2.85;;;;;;;;;;1037984;28;20220;-80
2023/03/05 01:36:57;;;;;;;3.22;1.55;;;;;;;;;;1039188;28;20029;-80
2023/03/05 01:37:28;;;;;;;3.22;1.27;;;;;;;;;;1040549;28;20124;-80
2023/03/05 01:37:58;;;;;;;7.45;2.80;;;;;;;;;;1040565;28;20060;-80
2023/03/05 01:38:29;;;;;;;12.43;3.22;;;;;;;;;;1040396;28;20029;-80
2023/03/05 01:39:00;;;;;;;3.45;2.70;;;;;;;;;;1036600;28;20529;-80
2023/03/05 01:39:30;;;;;;;4.38;3.15;;;;;;;;;;1036004;28;20030;-80
2023/03/05 01:40:01;;;;;;;3.10;2.45;;;;;;;;;;1038576;28;20116;-80
2023/03/05 01:40:31;;;;;;;2.83;1.70;;;;;;;;;;1038261;28;20040;-80
2023/03/05 01:41:02;;;;;;;3.53;2.58;;;;;;;;;;1040760;28;20026;-80
2023/03/05 01:41:33;;;;;;;4.88;1.80;;;;;;;;;;1040526;28;20024;-80
2023/03/05 01:42:04;;;;;;;4.85;2.03;;;;;;;;;;1040221;28;20080;-80
2023/03/05 01:42:34;;;;;;;2.70;1.65;;;;;;;;;;1036027;28;20056;-80
2023/03/05 01:43:18;;;;;;;11.95;2.70;;;;;;;;;;1036495;28;20091;-80
2023/03/05 01:43:51;;;;;;;11.75;5.00;;;;;;;;;;1031953;28;20057;-80
2023/03/05 01:44:26;;;;;;;1.67;1.55;;;;;;;;;;1034199;28;20084;-80
2023/03/05 01:44:59;;;;;;;10.57;2.55;;;;;;;;;;1035969;28;20060;-80
2023/03/05 01:45:31;;;;;;;6.88;3.30;;;;;;;;;;1035926;28;20052;-80
2023/03/05 01:46:20;;;;;;;5.70;1.98;;;;;;;;;;1033781;28;20022;-80
2023/03/05 01:46:51;;;;;;;3.30;2.20;;;;;;;;;;1039916;28;20131;-80
2023/03/05 01:47:21;;;;;;;4.32;3.30;;;;;;;;;;1041003;28;20611;-80
2023/03/05 01:47:53;;;;;;;5.40;3.38;;;;;;;;;;1042150;28;20071;-80
2023/03/05 01:48:24;;;;;;;5.03;2.67;;;;;;;;;;1040951;28;20563;-79
2023/03/05 01:49:09;;;;;;;13.23;2.00;;;;;;;;;;1039321;28;20056;-79
2023/03/05 01:49:40;;;;;;;7.90;3.35;;;;;;;;;;1037426;28;20013;-79
2023/03/05 01:50:12;;;;;;;11.05;2.13;;;;;;;;;;1040928;28;20029;-80
2023/03/05 01:50:43;;;;;;;5.18;1.77;;;;;;;;;;1037821;28;20076;-80
2023/03/05 01:51:14;;;;;;;8.32;2.25;;;;;;;;;;1036527;28;20738;-80
2023/03/05 01:51:55;;;;;;;10.10;2.85;;;;;;;;;;1039306;28;21030;-80
2023/03/05 01:52:26;;;;;;;5.32;2.10;;;;;;;;;;1038510;28;20028;-80
2023/03/05 01:52:58;;;;;;;10.43;2.80;;;;;;;;;;1038312;28;20033;-80
2023/03/05 01:53:30;;;;;;;2.47;2.17;;;;;;;;;;1037866;28;20517;-80
2023/03/05 01:54:01;;;;;;;8.77;2.20;;;;;;;;;;1037984;28;20026;-80
2023/03/05 01:54:34;;;;;;;6.28;1.92;;;;;;;;;;1038357;28;20097;-79
2023/03/05 01:55:07;;;;;;;1.33;1.05;;;;;;;;;;1037601;28;20052;-80
2023/03/05 01:55:37;;;;;;;3.30;2.22;;;;;;;;;;1042893;28;20021;-80
2023/03/05 01:56:08;;;;;;;15.15;3.17;;;;;;;;;;1041158;28;20024;-80
2023/03/05 01:56:39;;;;;;;6.85;2.60;;;;;;;;;;1042037;28;20039;-80
2023/03/05 01:57:12;;;;;;;4.50;2.15;;;;;;;;;;1042088;28;20053;-80
2023/03/05 01:57:53;;;;;;;8.38;3.00;;;;;;;;;;1038501;28;20397;-80
2023/03/05 01:58:24;;;;;;;12.77;2.90;;;;;;;;;;1032644;28;20033;-80
2023/03/05 01:59:02;;;;;;;8.93;4.80;;;;;;;;;;1034502;28;20080;-80
2023/03/05 01:59:32;;;;;;;12.93;3.47;;;;;;;;;;1031230;28;20019;-80
2023/03/05 02:00:06;;;;;;;11.15;2.67;;;;;;;;;;1030431;28;20022;-80
2023/03/05 02:00:40;;;;;;;12.70;3.80;;;;;;;;;;1028824;28;21702;-80
2023/03/05 02:01:10;;;;;;;5.00;3.25;;;;;;;;;;1033194;28;20022;-80
2023/03/05 02:01:46;;;;;;;13.32;3.47;;;;;;;;;;1033170;28;20022;-80
2023/03/05 02:02:17;;;;;;;12.65;4.65;;;;;;;;;;1033575;28;20152;-80
2023/03/05 02:02:49;;;;;;;11.88;2.00;;;;;;;;;;1035671;28;20026;-80
2023/03/05 02:03:21;;;;;;;9.80;2.45;;;;;;;;;;1036500;28;20108;-80
2023/03/05 02:03:52;;;;;;;12.48;2.97;;;;;;;;;;1036008;28;20034;-80
2023/03/05 02:04:25;;;;;;;6.43;2.45;;;;;;;;;;1034433;28;20113;-80
2023/03/05 02:05:03;;;;;;;5.85;1.80;;;;;;;;;;1031912;28;20069;-80
2023/03/05 02:05:36;;;;;;;13.77;3.75;;;;;;;;;;1035763;28;20502;-80
2023/03/05 02:06:07;;;;;;;5.53;1.25;;;;;;;;;;1035445;28;20479;-78
2023/03/05 02:06:38;;;;;;;23.70;2.42;;;;;;;;;;1038664;28;20025;-80
2023/03/05 02:07:09;;;;;;;7.50;2.03;;;;;;;;;;1038128;28;20026;-81
2023/03/05 02:07:41;;;;;;;5.70;3.08;;;;;;;;;;1035559;28;20052;-79
2023/03/05 02:08:16;;;;;;;8.32;2.92;;;;;;;;;;1037376;28;20021;-79
2023/03/05 02:08:47;;;;;;;5.72;3.28;;;;;;;;;;1037942;28;20104;-79
2023/03/05 02:09:22;;;;;;;3.30;1.77;;;;;;;;;;1038854;28;20034;-79
2023/03/05 02:09:52;;;;;;;12.75;3.60;;;;;;;;;;1043563;28;20028;-79
2023/03/05 02:10:26;;;;;;;9.93;3.40;;;;;;;;;;1042054;28;20025;-79
2023/03/05 02:10:56;;;;;;;9.35;3.35;;;;;;;;;;1039537;28;20021;-79
2023/03/05 02:11:27;;;;;;;24.52;3.50;;;;;;;;;;1039807;28;20079;-79
2023/03/05 02:11:57;;;;;;;5.13;2.20;;;;;;;;;;1035003;28;20133;-79
2023/03/05 02:12:28;;;;;;;17.67;1.92;;;;;;;;;;1031731;28;20029;-80
2023/03/05 02:13:03;;;;;;;5.22;2.75;;;;;;;;;;1032230;28;20029;-80
2023/03/05 02:13:37;;;;;;;1.90;1.35;;;;;;;;;;1031985;28;20054;-80
2023/03/05 02:14:09;;;;;;;7.05;3.28;;;;;;;;;;1035434;28;20061;-81
2023/03/05 02:14:41;;;;;;;8.07;1.70;;;;;;;;;;1034421;28;20033;-79
2023/03/05 02:15:12;;;;;;;5.22;2.35;;;;;;;;;;1034153;28;20022;-80
2023/03/05 02:15:42;;;;;;;15.45;3.53;;;;;;;;;;1034681;28;20026;-80
2023/03/05 02:16:13;;;;;;;13.70;5.57;;;;;;;;;;1033202;28;20113;-80
2023/03/05 02:16:43;;;;;;;7.57;2.13;;;;;;;;;;1036413;28;20627;-80
2023/03/05 02:17:14;;;;;;;12.60;4.65;;;;;;;;;;1034274;28;20028;-80
2023/03/05 02:17:45;;;;;;;23.17;4.53;;;;;;;;;;1039400;28;20053;-80
2023/03/05 02:18:16;;;;;;;16.25;3.67;;;;;;;;;;1038256;28;20021;-80
2023/03/05 02:18:47;;;;;;;11.60;5.00;;;;;;;;;;1037396;28;20101;-80
2023/03/05 02:19:17;;;;;;;11.05;4.05;;;;;;;;;;1038909;28;20093;-80
2023/03/05 02:19:52;;;;;;;7.78;4.93;;;;;;;;;;1040617;28;20048;-80
2023/03/05 02:20:25;;;;;;;10.57;3.40;;;;;;;;;;1039544;28;20022;-80
2023/03/05 02:20:56;;;;;;;11.13;3.70;;;;;;;;;;1038460;28;20022;-80
2023/03/05 02:21:35;;;;;;;6.50;3.55;;;;;;;;;;1034947;28;20014;-80
2023/03/05 02:22:13;;;;;;;14.88;4.78;;;;;;;;;;1035888;28;20026;-80
2023/03/05 02:22:43;;;;;;;14.77;2.42;;;;;;;;;;1037490;28;20021;-80
2023/03/05 02:23:14;;;;;;;9.60;4.95;;;;;;;;;;1038723;28;20116;-80
2023/03/05 02:23:45;;;;;;;8.13;3.47;;;;;;;;;;1042667;28;20025;-80
2023/03/05 02:24:18;;;;;;;7.53;3.70;;;;;;;;;;1041471;28;20496;-80
2023/03/05 02:24:49;;;;;;;15.98;3.45;;;;;;;;;;1036712;28;20025;-80
2023/03/05 02:25:21;;;;;;;8.98;4.03;;;;;;;;;;1037282;28;20060;-80
2023/03/05 02:25:52;;;;;;;14.18;3.65;;;;;;;;;;1038116;28;20065;-80
2023/03/05 02:26:23;;;;;;;10.48;4.57;;;;;;;;;;1035724;28;20014;-80
2023/03/05 02:26:54;;;;;;;18.85;4.80;;;;;;;;;;1036566;28;20563;-80
2023/03/05 02:27:33;;;;;;;11.45;4.32;;;;;;;;;;1031799;28;20034;-80
2023/03/05 02:28:04;;;;;;;7.07;3.55;;;;;;;;;;1029299;28;20026;-80
2023/03/05 02:28:38;;;;;;;10.80;3.03;;;;;;;;;;1032302;28;20030;-80
2023/03/05 02:29:11;;;;;;;11.80;4.30;;;;;;;;;;1034564;28;20036;-80
2023/03/05 02:29:42;;;;;;;13.25;4.38;;;;;;;;;;1037697;28;20021;-80
2023/03/05 02:30:13;;;;;;;5.47;2.38;;;;;;;;;;1042027;28;20017;-79
2023/03/05 02:30:44;;;;;;;9.23;2.42;;;;;;;;;;1041912;28;20112;-79
2023/03/05 02:31:19;;;;;;;6.35;2.00;;;;;;;;;;1040882;28;20023;-80
2023/03/05 02:31:49;;;;;;;17.63;3.13;;;;;;;;;;1038842;28;20032;-79
2023/03/05 02:32:20;;;;;;;5.72;2.75;;;;;;;;;;1039183;28;20116;-79
2023/03/05 02:32:50;;;;;;;5.82;2.63;;;;;;;;;;1032254;28;20018;-80
2023/03/05 02:33:21;;;;;;;5.75;3.40;;;;;;;;;;1033786;28;20164;-80
2023/03/05 02:33:52;;;;;;;16.85;3.97;;;;;;;;;;1028757;28;20065;-80
2023/03/05 02:34:23;;;;;;;10.23;1.60;;;;;;;;;;1029673;28;20461;-80
2023/03/05 02:34:54;;;;;;;15.15;3.20;;;;;;;;;;1034470;28;20052;-80
2023/03/05 02:35:24;;;;;;;6.65;3.03;;;;;;;;;;1032912;28;20411;-80
2023/03/05 02:35:55;;;;;;;11.82;2.83;;;;;;;;;;1035477;28;20022;-79
2023/03/05 02:36:26;;;;;;;5.50;2.53;;;;;;;;;;1035611;28;20018;-79
2023/03/05 02:36:56;;;;;;;15.95;4.03;;;;;;;;;;1035692;28;20029;-79
2023/03/05 02:37:27;;;;;;;10.80;2.40;;;;;;;;;;1035766;28;20049;-79
2023/03/05 02:37:57;;;;;;;9.05;2.90;;;;;;;;;;1031973;28;20026;-79
2023/03/05 02:38:28;;;;;;;10.23;3.33;;;;;;;;;;1031987;28;20030;-79
2023/03/05 02:38:59;;;;;;;7.57;3.33;;;;;;;;;;1036109;28;20021;-79
2023/03/05 02:39:30;;;;;;;2.42;1.02;;;;;;;;;;1037273;28;20033;-79
2023/03/05 02:40:00;;;;;;;4.85;2.10;;;;;;;;;;1036698;28;20025;-79
2023/03/05 02:40:31;;;;;;;8.20;1.90;;;;;;;;;;1036895;28;20460;-79
2023/03/05 02:41:02;;;;;;;4.15;1.98;;;;;;;;;;1036104;28;20028;-79
2023/03/05 02:41:32;;;;;;;2.80;1.65;;;;;;;;;;1040459;28;20021;-79
2023/03/05 02:42:03;;;;;;;2.88;1.08;;;;;;;;;;1040371;28;20029;-80
2023/03/05 02:42:34;;;;;;;12.93;2.28;;;;;;;;;;1040422;28;20716;-80
2023/03/05 02:43:05;;;;;;;7.40;3.20;;;;;;;;;;1039987;28;20037;-80
2023/03/05 02:43:36;;;;;;;3.67;1.80;;;;;;;;;;1039732;28;20013;-79
2023/03/05 02:44:06;;;;;;;6.40;2.03;;;;;;;;;;1039843;28;20022;-79
2023/03/05 02:44:37;;;;;;;4.95;2.42;;;;;;;;;;1039695;28;20026;-79
2023/03/05 02:45:09;;;;;;;3.80;1.48;;;;;;;;;;1031586;28;20016;-79
2023/03/05 02:45:39;;;;;;;13.75;1.92;;;;;;;;;;1031562;28;20173;-79
2023/03/05 02:46:10;;;;;;;8.48;1.55;;;;;;;;;;1030541;28;20081;-79
2023/03/05 02:46:41;;;;;;;4.35;1.58;;;;;;;;;;1031851;28;20438;-79
2023/03/05 02:47:11;;;;;;;4.90;2.95;;;;;;;;;;1035399;28;20108;-79
2023/03/05 02:47:42;;;;;;;5.35;1.98;;;;;;;;;;1035484;28;20079;-79
2023/03/05 02:48:13;;;;;;;5.22;3.40;;;;;;;;;;1035814;28;20026;-79
2023/03/05 02:48:43;;;;;;;3.25;1.63;;;;;;;;;;1038367;28;20032;-79
2023/03/05 02:49:14;;;;;;;7.28;2.05;;;;;;;;;;1042336;28;20033;-79
2023/03/05 02:49:44;;;;;;;7.55;2.30;;;;;;;;;;1041941;28;20119;-79
2023/03/05 02:50:16;;;;;;;15.15;2.17;;;;;;;;;;1043356;28;20135;-79
2023/03/05 02:50:47;;;;;;;11.07;2.67;;;;;;;;;;1041422;28;20529;-79
2023/03/05 02:51:17;;;;;;;13.02;2.90;;;;;;;;;;1038623;28;20460;-79
2023/03/05 02:51:48;;;;;;;11.85;1.83;;;;;;;;;;1040399;28;20081;-79
2023/03/05 02:52:18;;;;;;;7.15;3.03;;;;;;;;;;1039634;28;20544;-79
2023/03/05 02:52:49;;;;;;;5.25;2.80;;;;;;;;;;1040260;28;20427;-79
2023/03/05 02:53:21;;;;;;;3.40;1.98;;;;;;;;;;1035479;28;20179;-79
2023/03/05 02:53:52;;;;;;;5.32;1.23;;;;;;;;;;1035554;28;20080;-79
2023/03/05 02:54:23;;;;;;;6.03;2.38;;;;;;;;;;1035917;28;20088;-79
2023/03/05 02:54:53;;;;;;;21.35;3.25;;;;;;;;;;1038412;28;20026;-79
2023/03/05 02:55:24;;;;;;;4.70;1.85;;;;;;;;;;1042467;28;20025;-79
2023/03/05 02:55:54;;;;;;;4.30;2.55;;;;;;;;;;1042209;28;20095;-80
2023/03/05 02:56:25;;;;;;;4.15;1.52;;;;;;;;;;1040140;28;20409;-79
2023/03/05 02:56:55;;;;;;;3.30;1.33;;;;;;;;;;1039893;28;20063;-79
2023/03/05 02:57:26;;;;;;;11.38;2.80;;;;;;;;;;1038340;28;20493;-79
2023/03/05 02:57:57;;;;;;;5.03;2.45;;;;;;;;;;1035542;28;20532;-80
2023/03/05 02:58:27;;;;;;;4.78;2.47;;;;;;;;;;1035643;28;20030;-80
2023/03/05 02:58:58;;;;;;;6.25;2.33;;;;;;;;;;1035850;28;20018;-80
2023/03/05 02:59:28;;;;;;;7.95;3.45;;;;;;;;;;1038108;28;20057;-79
2023/03/05 02:59:59;;;;;;;5.72;1.65;;;;;;;;;;1034241;28;20030;-79
2023/03/05 03:00:30;;;;;;;8.32;2.65;;;;;;;;;;1037723;28;20055;-79
2023/03/05 03:01:00;;;;;;;3.80;1.90;;;;;;;;;;1039276;28;20028;-80
2023/03/05 03:01:31;;;;;;;5.28;3.35;;;;;;;;;;1038057;28;20017;-80
2023/03/05 03:02:01;;;;;;;7.10;1.55;;;;;;;;;;1039500;28;20029;-80
2023/03/05 03:02:32;;;;;;;5.80;2.92;;;;;;;;;;1040052;28;20025;-80
2023/03/05 03:03:03;;;;;;;14.13;2.90;;;;;;;;;;1036369;28;20088;-79
2023/03/05 03:03:33;;;;;;;6.25;1.40;;;;;;;;;;1035636;28;20026;-79
2023/03/05 03:04:04;;;;;;;5.00;2.40;;;;;;;;;;1035584;28;20176;-80
2023/03/05 03:04:34;;;;;;;11.15;1.80;;;;;;;;;;1034036;28;20116;-80
2023/03/05 03:05:05;;;;;;;5.28;1.83;;;;;;;;;;1038332;28;20049;-80
2023/03/05 03:05:36;;;;;;;3.55;1.98;;;;;;;;;;1037435;28;20032;-80
2023/03/05 03:06:06;;;;;;;3.95;2.30;;;;;;;;;;1034845;28;20587;-80
2023/03/05 03:06:37;;;;;;;0.82;0.60;;;;;;;;;;1036948;28;20050;-80
2023/03/05 03:07:07;;;;;;;4.82;1.98;;;;;;;;;;1037697;28;20021;-80